Aviation Digital Data Service (ADDS)

Output produced by METARs form (0223 UTC 11 February 2016)
found at http://aviationweather.gov/adds/metars/
 
KACK 102340Z 1100/1124 28010KT P6SM OVC050 
     FM110600 29013KT P6SM BKN035 
     FM111700 28020G29KT P6SM BKN035 
     FM112200 29021G35KT P6SM BKN035